Time;durP1;ratioP1;P1;durP2;ratioP2;P2;SDS_P1;SDS_P2;PMS_P1;PMS_P2;Temp;Humidity;BMP_temperature;BMP_pressure;BME280_temperature;BME280_humidity;BME280_pressure;Samples;Min_cycle;Max_cycle;Signal;HPM_P1;HPM_P2
2024/01/04 03:40:50;;;;;;;5.30;2.30;;;;;;;7.40;100.00;96722.02;106798;1308;558032;-37
2024/01/04 03:43:16;;;;;;;3.50;2.30;;;;;;;7.41;100.00;96722.98;107147;1297;22462;-37
2024/01/04 03:45:41;;;;;;;5.80;2.50;;;;;;;7.42;100.00;96721.56;107220;1298;22458;-37
2024/01/04 03:48:07;;;;;;;5.80;2.50;;;;;;;7.41;100.00;96721.63;107400;1291;23186;-38
2024/01/04 03:50:32;;;;;;;5.00;2.40;;;;;;;7.40;100.00;96719.41;107413;1312;22218;-38
2024/01/04 03:52:57;;;;;;;4.20;3.00;;;;;;;7.43;100.00;96721.29;107173;1310;283177;-39
2024/01/04 03:55:22;;;;;;;5.20;2.50;;;;;;;7.44;100.00;96724.10;107622;1291;22197;-37
2024/01/04 03:57:50;;;;;;;4.90;2.70;;;;;;;7.44;100.00;96717.69;107613;1307;22457;-37
2024/01/04 04:00:16;;;;;;;5.60;2.20;;;;;;;7.41;100.00;96714.78;107620;1291;22504;-38
2024/01/04 04:02:41;;;;;;;6.10;2.90;;;;;;;7.38;100.00;96714.40;107638;1310;22485;-37
2024/01/04 04:05:07;;;;;;;6.50;2.70;;;;;;;7.39;100.00;96713.60;107606;1310;22259;-37
2024/01/04 04:07:32;;;;;;;3.00;2.40;;;;;;;7.37;100.00;96712.56;107628;1294;23382;-37
2024/01/04 04:09:58;;;;;;;5.40;2.70;;;;;;;7.35;100.00;96712.16;107608;1286;22308;-37
2024/01/04 04:12:23;;;;;;;6.50;2.60;;;;;;;7.35;100.00;96710.79;107615;1290;22269;-38
2024/01/04 04:14:49;;;;;;;4.60;2.40;;;;;;;7.35;100.00;96709.00;107624;1310;22202;-38
2024/01/04 04:17:18;;;;;;;4.80;2.60;;;;;;;7.37;100.00;96709.06;107634;1310;22726;-37
2024/01/04 04:19:43;;;;;;;6.80;2.60;;;;;;;7.33;100.00;96706.95;107622;1291;22254;-38
2024/01/04 04:22:08;;;;;;;4.70;3.20;;;;;;;7.33;100.00;96708.20;107609;1310;22659;-37
2024/01/04 04:24:34;;;;;;;8.40;3.10;;;;;;;7.32;100.00;96709.08;107615;1291;22254;-37
2024/01/04 04:26:59;;;;;;;5.10;2.90;;;;;;;7.32;100.00;96705.78;107606;1287;22487;-38
2024/01/04 04:29:24;;;;;;;5.30;2.60;;;;;;;7.29;100.00;96707.27;107608;1291;22305;-38
2024/01/04 04:31:50;;;;;;;5.40;2.90;;;;;;;7.29;100.00;96706.94;107609;1309;22194;-37
2024/01/04 04:34:15;;;;;;;4.90;2.80;;;;;;;7.29;100.00;96706.73;107626;1290;22243;-38
2024/01/04 04:36:40;;;;;;;7.30;2.80;;;;;;;7.30;100.00;96709.44;107585;1310;22278;-38
2024/01/04 04:39:07;;;;;;;4.00;2.30;;;;;;;7.30;100.00;96706.27;107632;1309;22263;-38
2024/01/04 04:41:32;;;;;;;5.00;2.30;;;;;;;7.31;100.00;96706.58;107615;1291;23254;-38
2024/01/04 04:43:57;;;;;;;4.60;2.30;;;;;;;7.31;100.00;96709.91;107624;1287;22407;-38
2024/01/04 04:46:23;;;;;;;5.10;2.50;;;;;;;7.33;100.00;96710.09;107620;1291;23539;-38
2024/01/04 04:48:54;;;;;;;3.70;2.20;;;;;;;7.28;100.00;96706.30;107610;1298;22307;-38
2024/01/04 04:51:20;;;;;;;6.20;3.20;;;;;;;7.29;100.00;96710.41;107575;1310;22238;-38
2024/01/04 04:53:45;;;;;;;6.20;2.30;;;;;;;7.31;100.00;96713.02;107579;1310;23072;-38
2024/01/04 04:56:10;;;;;;;5.40;2.20;;;;;;;7.30;100.00;96711.31;107592;1291;24484;-38
2024/01/04 04:58:35;;;;;;;5.10;2.40;;;;;;;7.33;100.00;96713.19;107594;1292;22427;-38
2024/01/04 05:01:01;;;;;;;5.50;2.40;;;;;;;7.35;100.00;96715.35;107594;1310;22442;-38
2024/01/04 05:03:26;;;;;;;4.20;2.20;;;;;;;7.35;100.00;96715.19;107588;1287;22530;-38
2024/01/04 05:05:51;;;;;;;3.30;2.10;;;;;;;7.35;100.00;96718.63;107590;1287;22233;-38
2024/01/04 05:08:16;;;;;;;2.90;1.90;;;;;;;7.35;100.00;96717.23;107580;1286;23085;-38
2024/01/04 05:10:42;;;;;;;4.10;2.20;;;;;;;7.34;100.00;96712.27;107693;1294;22312;-38
2024/01/04 05:13:07;;;;;;;4.00;2.40;;;;;;;7.37;100.00;96714.29;107657;1309;22225;-38
2024/01/04 05:15:32;;;;;;;3.70;2.10;;;;;;;7.39;100.00;96716.02;107692;1290;22242;-38
2024/01/04 05:17:58;;;;;;;6.50;2.30;;;;;;;7.40;100.00;96716.48;107672;1290;22425;-38
2024/01/04 05:20:23;;;;;;;5.40;2.60;;;;;;;7.39;100.00;96718.30;107666;1290;22202;-41
2024/01/04 05:22:48;;;;;;;5.60;2.20;;;;;;;7.39;100.00;96718.83;107681;1309;23270;-38
2024/01/04 05:25:15;;;;;;;8.80;2.80;;;;;;;7.40;100.00;96720.08;107686;1309;22529;-38
2024/01/04 05:27:40;;;;;;;5.30;2.70;;;;;;;7.43;100.00;96716.73;107682;1285;22992;-39
2024/01/04 05:30:09;;;;;;;3.30;2.30;;;;;;;7.49;100.00;96719.73;107674;1291;22312;-38
2024/01/04 05:32:35;;;;;;;3.50;2.20;;;;;;;7.50;100.00;96718.23;107679;1288;22339;-38
2024/01/04 05:35:00;;;;;;;3.40;2.10;;;;;;;7.51;100.00;96720.79;107697;1288;22973;-38
2024/01/04 05:37:26;;;;;;;3.60;2.30;;;;;;;7.53;100.00;96720.95;107674;1309;22433;-38
2024/01/04 05:39:51;;;;;;;2.70;2.10;;;;;;;7.54;100.00;96723.62;107628;1309;22492;-38
2024/01/04 05:42:16;;;;;;;8.00;2.60;;;;;;;7.55;100.00;96724.09;107653;1290;22320;-38
2024/01/04 05:44:41;;;;;;;8.60;2.40;;;;;;;7.54;100.00;96728.52;107661;1287;22371;-38
2024/01/04 05:47:07;;;;;;;5.20;2.20;;;;;;;7.54;100.00;96729.20;107655;1302;22291;-38
2024/01/04 05:49:32;;;;;;;4.10;2.60;;;;;;;7.54;100.00;96734.30;107630;1290;22418;-38
2024/01/04 05:51:58;;;;;;;5.10;2.20;;;;;;;7.50;100.00;96733.36;107690;1309;22232;-38
2024/01/04 05:54:23;;;;;;;3.30;2.40;;;;;;;7.50;100.00;96732.87;107681;1291;22322;-37
2024/01/04 05:56:48;;;;;;;4.60;2.80;;;;;;;7.46;100.00;96736.51;107694;1288;22744;-38
2024/01/04 05:59:14;;;;;;;4.70;2.70;;;;;;;7.46;100.00;96736.16;107695;1309;22360;-38
2024/01/04 06:01:39;;;;;;;9.80;5.40;;;;;;;7.42;100.00;96733.20;107710;1289;22256;-37
2024/01/04 06:04:05;;;;;;;3.80;3.10;;;;;;;7.43;100.00;96741.33;107703;1287;22249;-38
2024/01/04 06:06:30;;;;;;;2.90;2.60;;;;;;;7.40;100.00;96745.71;107686;1287;23158;-38
2024/01/04 06:08:55;;;;;;;3.40;2.40;;;;;;;7.37;100.00;96749.79;107689;1290;22662;-35
2024/01/04 06:11:21;;;;;;;10.20;6.50;;;;;;;7.30;100.00;96749.02;107680;1286;22232;-39
2024/01/04 06:13:46;;;;;;;8.50;4.30;;;;;;;7.28;100.00;96754.55;107696;1287;22272;-39
2024/01/04 06:16:11;;;;;;;7.40;3.20;;;;;;;7.29;100.00;96758.30;107717;1288;22235;-38
2024/01/04 06:18:36;;;;;;;3.90;2.70;;;;;;;7.29;100.00;96758.27;107682;1309;23326;-39
2024/01/04 06:21:03;;;;;;;4.80;3.30;;;;;;;7.27;100.00;96759.31;107663;1290;22435;-38
2024/01/04 06:23:30;;;;;;;22.10;7.10;;;;;;;7.27;100.00;96760.38;107703;1287;23144;-38
2024/01/04 06:25:56;;;;;;;13.10;4.70;;;;;;;7.26;100.00;96763.07;107675;1291;23111;-38
2024/01/04 06:28:22;;;;;;;24.20;7.30;;;;;;;7.25;100.00;96763.64;107692;1290;22429;-38
2024/01/04 06:30:47;;;;;;;9.40;4.10;;;;;;;7.25;100.00;96761.44;107679;1289;22714;-38
2024/01/04 06:33:13;;;;;;;36.20;9.90;;;;;;;7.23;100.00;96758.10;107700;1287;22442;-37
2024/01/04 06:35:38;;;;;;;18.10;6.10;;;;;;;7.18;100.00;96755.77;107686;1288;22427;-38
2024/01/04 06:38:07;;;;;;;6.40;3.60;;;;;;;7.20;100.00;96756.65;107691;1286;22555;-38
2024/01/04 06:40:34;;;;;;;8.90;5.10;;;;;;;7.22;100.00;96758.05;107691;1308;22930;-38
2024/01/04 06:43:00;;;;;;;4.90;2.90;;;;;;;7.24;100.00;96758.04;107682;1291;22848;-37
2024/01/04 06:45:25;;;;;;;4.20;2.90;;;;;;;7.23;100.00;96759.64;107037;1291;22575;-43
2024/01/04 06:47:51;;;;;;;6.40;3.80;;;;;;;7.22;100.00;96766.51;107282;1309;22259;-38
2024/01/04 06:50:17;;;;;;;6.70;4.20;;;;;;;7.20;100.00;96770.38;107650;1287;22502;-38
2024/01/04 06:52:42;;;;;;;4.20;3.20;;;;;;;7.20;100.00;96772.10;107660;1287;22507;-38
2024/01/04 06:55:10;;;;;;;6.80;3.20;;;;;;;7.16;100.00;96772.48;107689;1309;22413;-38
2024/01/04 06:57:35;;;;;;;4.30;3.30;;;;;;;7.16;100.00;96774.22;107698;1291;22421;-36
2024/01/04 07:00:00;;;;;;;5.20;3.10;;;;;;;7.13;100.00;96773.56;107666;1309;22267;-37
2024/01/04 07:02:26;;;;;;;6.50;3.60;;;;;;;7.16;100.00;96772.30;107693;1287;22230;-37
2024/01/04 07:04:52;;;;;;;7.20;3.70;;;;;;;7.16;100.00;96771.98;107681;1287;22248;-37
2024/01/04 07:07:17;;;;;;;3.60;2.60;;;;;;;7.16;100.00;96776.11;107668;1309;23243;-36
2024/01/04 07:09:42;;;;;;;6.10;3.90;;;;;;;7.16;100.00;96775.73;107689;1288;22282;-37
2024/01/04 07:12:08;;;;;;;3.60;2.60;;;;;;;7.16;100.00;96776.63;107682;1309;23177;-37
2024/01/04 07:14:37;;;;;;;3.30;2.70;;;;;;;7.15;100.00;96779.32;107686;1309;22253;-38
2024/01/04 07:17:04;;;;;;;6.20;2.60;;;;;;;7.15;100.00;96777.23;107712;1288;22661;-38
